TimeEST,TemperatureF,Dew PointF,Humidity,Sea Level PressureIn,VisibilityMPH,Wind Direction,Wind SpeedMPH,Gust SpeedMPH,PrecipitationIn,Events,Conditions,WindDirDegrees,DateUTC
12:15 AM,46.4,19.4,34,30.06,10.0,East,3.5,-,N/A,,Clear,80,2013-03-05 05:15:00
12:35 AM,46.4,19.4,34,30.05,10.0,East,3.5,-,N/A,,Clear,80,2013-03-05 05:35:00
12:55 AM,46.4,19.4,34,30.05,10.0,Calm,Calm,-,N/A,,Mostly Cloudy,0,2013-03-05 05:55:00
1:15 AM,46.4,21.2,37,30.04,10.0,Calm,Calm,-,N/A,,Overcast,0,2013-03-05 06:15:00
1:35 AM,44.6,21.2,39,30.04,10.0,East,3.5,-,N/A,,Overcast,80,2013-03-05 06:35:00
1:55 AM,44.6,21.2,39,30.03,10.0,ESE,4.6,-,N/A,,Overcast,110,2013-03-05 06:55:00
2:15 AM,44.6,21.2,39,30.02,10.0,East,3.5,-,N/A,,Overcast,80,2013-03-05 07:15:00
2:55 AM,44.6,23.0,43,30.01,10.0,Calm,Calm,-,N/A,,Overcast,0,2013-03-05 07:55:00
3:15 AM,44.6,23.0,43,30.00,10.0,ENE,4.6,-,N/A,,Overcast,60,2013-03-05 08:15:00
3:35 AM,44.6,23.0,43,29.99,10.0,ENE,3.5,-,N/A,,Overcast,70,2013-03-05 08:35:00
3:55 AM,44.6,23.0,43,29.99,10.0,East,3.5,-,N/A,,Overcast,80,2013-03-05 08:55:00
4:15 AM,44.6,23.0,43,29.99,10.0,East,3.5,-,N/A,,Overcast,80,2013-03-05 09:15:00
4:35 AM,46.4,23.0,40,29.99,10.0,East,4.6,-,N/A,,Overcast,80,2013-03-05 09:35:00
4:55 AM,44.6,24.8,46,29.99,10.0,East,3.5,-,N/A,,Overcast,80,2013-03-05 09:55:00
5:15 AM,44.6,26.6,49,29.99,10.0,East,4.6,-,N/A,,Overcast,90,2013-03-05 10:15:00
5:55 AM,44.6,26.6,49,29.99,10.0,Calm,Calm,-,N/A,,Overcast,0,2013-03-05 10:55:00
6:15 AM,44.6,26.6,49,29.99,10.0,NE,3.5,-,N/A,,Overcast,50,2013-03-05 11:15:00
6:35 AM,44.6,26.6,49,29.99,10.0,ENE,3.5,-,N/A,,Overcast,70,2013-03-05 11:35:00
6:55 AM,46.4,26.6,46,29.99,10.0,East,3.5,-,N/A,,Overcast,80,2013-03-05 11:55:00
7:15 AM,46.4,26.6,46,29.98,10.0,East,4.6,-,N/A,,Overcast,90,2013-03-05 12:15:00
7:55 AM,46.4,28.4,50,29.98,10.0,East,3.5,-,N/A,,Overcast,100,2013-03-05 12:55:00
8:15 AM,46.4,30.2,53,29.98,10.0,Calm,Calm,-,N/A,,Overcast,0,2013-03-05 13:15:00
8:35 AM,46.4,30.2,53,29.98,10.0,ENE,3.5,-,N/A,,Overcast,70,2013-03-05 13:35:00
8:55 AM,46.4,30.2,53,29.98,10.0,Calm,Calm,-,N/A,,Overcast,0,2013-03-05 13:55:00
9:15 AM,48.2,32.0,54,29.98,10.0,Calm,Calm,-,N/A,,Overcast,0,2013-03-05 14:15:00
9:35 AM,48.2,32.0,54,29.97,10.0,East,3.5,-,N/A,,Overcast,80,2013-03-05 14:35:00
9:55 AM,50.0,32.0,50,29.95,10.0,ENE,3.5,-,N/A,,Overcast,70,2013-03-05 14:55:00
10:15 AM,55.4,32.0,41,29.94,10.0,ENE,4.6,-,N/A,,Scattered Clouds,60,2013-03-05 15:15:00
10:35 AM,55.4,35.6,47,29.92,10.0,East,3.5,-,N/A,,Scattered Clouds,80,2013-03-05 15:35:00
10:55 AM,59.0,37.4,45,29.91,10.0,SSE,4.6,-,N/A,,Mostly Cloudy,150,2013-03-05 15:55:00
11:15 AM,62.6,41.0,45,29.90,10.0,SW,10.4,-,N/A,,Mostly Cloudy,220,2013-03-05 16:15:00
11:35 AM,62.6,41.0,45,29.89,10.0,SSW,17.3,23.0,N/A,,Mostly Cloudy,210,2013-03-05 16:35:00
11:55 AM,62.6,41.0,45,29.88,10.0,SW,11.5,17.3,N/A,,Overcast,220,2013-03-05 16:55:00
12:15 PM,62.6,41.0,45,29.88,10.0,SSW,15.0,23.0,N/A,,Overcast,210,2013-03-05 17:15:00
12:35 PM,62.6,42.8,48,29.87,10.0,SW,12.7,-,N/A,,Overcast,220,2013-03-05 17:35:00
12:55 PM,62.6,42.8,48,29.85,10.0,SW,10.4,-,N/A,,Overcast,220,2013-03-05 17:55:00
1:15 PM,62.6,42.8,48,29.84,10.0,SSW,11.5,24.2,N/A,,Overcast,200,2013-03-05 18:15:00
1:35 PM,62.6,42.8,48,29.82,10.0,SSW,19.6,27.6,N/A,,Overcast,210,2013-03-05 18:35:00
1:55 PM,62.6,42.8,48,29.79,10.0,South,10.4,28.8,N/A,,Overcast,190,2013-03-05 18:55:00
2:15 PM,62.6,42.8,48,29.76,10.0,South,12.7,20.7,N/A,,Overcast,180,2013-03-05 19:15:00
2:35 PM,62.6,42.8,48,29.75,10.0,SSW,12.7,25.3,N/A,,Overcast,200,2013-03-05 19:35:00
2:55 PM,62.6,42.8,48,29.75,10.0,SSW,15.0,24.2,N/A,,Mostly Cloudy,210,2013-03-05 19:55:00
3:15 PM,62.6,42.8,48,29.72,10.0,South,16.1,23.0,N/A,Rain,Light Rain,190,2013-03-05 20:15:00
3:35 PM,62.6,42.8,48,29.70,10.0,SSW,12.7,26.5,N/A,,Overcast,200,2013-03-05 20:35:00
3:55 PM,60.8,44.6,55,29.68,10.0,South,15.0,31.1,N/A,Rain,Rain,190,2013-03-05 20:55:00
4:15 PM,59.0,48.2,67,29.68,7.0,SSW,13.8,20.7,N/A,Rain,Rain,210,2013-03-05 21:15:00
4:35 PM,57.2,50.0,77,29.72,1.0,West,15.0,34.5,N/A,Rain,Heavy Rain,270,2013-03-05 21:35:00
4:55 PM,55.4,50.0,82,29.73,5.0,WNW,8.1,18.4,N/A,Rain,Light Rain,290,2013-03-05 21:55:00
5:15 PM,55.4,50.0,82,29.75,10.0,West,8.1,19.6,N/A,,Scattered Clouds,280,2013-03-05 22:15:00
5:35 PM,55.4,46.4,72,29.75,10.0,West,12.7,26.5,N/A,,Scattered Clouds,270,2013-03-05 22:35:00
5:55 PM,53.6,44.6,72,29.76,10.0,West,12.7,19.6,N/A,,Scattered Clouds,280,2013-03-05 22:55:00
6:15 PM,53.6,41.0,62,29.79,10.0,WNW,9.2,27.6,N/A,,Scattered Clouds,290,2013-03-05 23:15:00
6:35 PM,51.8,37.4,58,29.80,10.0,WNW,9.2,21.9,N/A,,Mostly Cloudy,290,2013-03-05 23:35:00
6:55 PM,51.8,37.4,58,29.82,10.0,West,17.3,25.3,N/A,,Overcast,280,2013-03-05 23:55:00
7:15 PM,50.0,35.6,58,29.83,10.0,West,13.8,24.2,N/A,,Mostly Cloudy,280,2013-03-06 00:15:00
7:35 PM,46.4,33.8,62,29.84,10.0,West,15.0,26.5,N/A,,Overcast,280,2013-03-06 00:35:00
7:55 PM,44.6,32.0,61,29.87,10.0,West,12.7,23.0,N/A,,Overcast,280,2013-03-06 00:55:00
8:15 PM,44.6,32.0,61,29.87,10.0,WNW,16.1,28.8,N/A,,Overcast,290,2013-03-06 01:15:00
8:35 PM,42.8,30.2,61,29.88,10.0,WNW,13.8,24.2,N/A,,Overcast,290,2013-03-06 01:35:00
8:55 PM,41.0,28.4,61,29.89,10.0,WNW,10.4,25.3,N/A,,Overcast,290,2013-03-06 01:55:00
9:15 PM,41.0,26.6,57,29.91,10.0,WNW,19.6,33.4,N/A,,Overcast,300,2013-03-06 02:15:00
9:35 PM,39.2,24.8,56,29.92,10.0,WNW,17.3,31.1,N/A,,Overcast,300,2013-03-06 02:35:00
9:55 PM,37.4,23.0,56,29.92,10.0,WNW,13.8,27.6,N/A,,Overcast,300,2013-03-06 02:55:00
10:15 PM,37.4,21.2,52,29.92,10.0,WNW,16.1,33.4,N/A,,Overcast,300,2013-03-06 03:15:00
10:35 PM,37.4,21.2,52,29.92,10.0,WNW,11.5,18.4,N/A,,Overcast,300,2013-03-06 03:35:00
10:55 PM,37.4,21.2,52,29.92,10.0,WNW,8.1,20.7,N/A,,Overcast,290,2013-03-06 03:55:00
11:15 PM,37.4,23.0,56,29.92,10.0,WNW,8.1,20.7,N/A,,Overcast,290,2013-03-06 04:15:00
11:35 PM,37.4,21.2,52,29.91,10.0,NW,8.1,19.6,N/A,,Overcast,310,2013-03-06 04:35:00
11:55 PM,37.4,19.4,48,29.90,10.0,NW,5.8,18.4,N/A,,Overcast,310,2013-03-06 04:55:00